Time;durP1;ratioP1;P1;durP2;ratioP2;P2;SDS_P1;SDS_P2;PMS_P1;PMS_P2;Temp;Humidity;BMP_temperature;BMP_pressure;BME280_temperature;BME280_humidity;BME280_pressure;Samples;Min_cycle;Max_cycle;Signal;HPM_P1;HPM_P2
2021/11/04 00:00:22;;;;;;;5.97;4.93;;;6.80;99.90;;;;;;7379631;19;20401;-80
2021/11/04 01:17:28;;;;;;;7.35;5.80;;;6.40;99.90;;;;;;7352980;19;20356;-81
2021/11/04 01:19:54;;;;;;;5.43;4.70;;;6.40;99.90;;;;;;7359365;19;20324;-81
2021/11/04 01:22:24;;;;;;;5.75;4.50;;;6.50;99.90;;;;;;7375932;19;20324;-82
2021/11/04 01:24:52;;;;;;;6.63;4.82;;;6.40;99.90;;;;;;7333360;19;20325;-82
2021/11/04 01:27:20;;;;;;;5.27;3.93;;;6.40;99.90;;;;;;7393079;19;20321;-81
2021/11/04 01:29:53;;;;;;;4.80;4.25;;;6.50;99.90;;;;;;7375418;19;20308;-82
2021/11/04 01:32:24;;;;;;;5.30;4.65;;;6.50;99.90;;;;;;7303985;19;20313;-82
2021/11/04 01:59:13;;;;;;;6.15;5.55;;;6.40;99.90;;;;;;7344705;19;20305;-79
2021/11/04 02:08:02;;;;;;;8.57;6.50;;;6.40;99.90;;;;;;7371226;19;20321;-80
2021/11/04 02:10:31;;;;;;;8.63;6.65;;;6.30;99.90;;;;;;7273209;19;2004487;-80
2021/11/04 02:41:30;;;;;;;6.32;5.72;;;6.60;99.90;;;;;;7393690;19;20342;-79
2021/11/04 02:48:15;;;;;;;7.15;6.25;;;6.70;99.90;;;;;;7396174;19;20349;-79
2021/11/04 03:11:14;;;;;;;7.78;6.63;;;6.80;99.90;;;;;;7371566;19;20341;-77
2021/11/04 03:13:45;;;;;;;8.55;7.63;;;6.80;99.90;;;;;;7390791;19;20662;-78
2021/11/04 03:16:44;;;;;;;7.40;6.63;;;6.70;99.90;;;;;;7371912;19;20304;-78
2021/11/04 03:19:56;;;;;;;10.05;7.32;;;6.60;99.90;;;;;;7318999;19;20870;-78
2021/11/04 03:49:08;;;;;;;8.98;8.07;;;6.60;99.90;;;;;;7336143;19;21580;-79
2021/11/04 03:51:42;;;;;;;7.97;7.00;;;6.60;99.90;;;;;;7389324;19;20370;-80
2021/11/04 03:54:12;;;;;;;8.02;7.20;;;6.60;99.90;;;;;;7355506;19;20945;-80
2021/11/04 03:56:41;;;;;;;11.45;8.63;;;6.60;99.90;;;;;;7341277;19;20852;-80
2021/11/04 03:59:11;;;;;;;10.63;8.60;;;6.70;99.90;;;;;;7368807;19;20382;-79
2021/11/04 04:01:42;;;;;;;10.60;8.87;;;6.60;99.90;;;;;;7362379;19;20328;-79
2021/11/04 04:04:11;;;;;;;8.68;7.82;;;6.70;99.90;;;;;;7365068;19;20332;-79
2021/11/04 04:06:40;;;;;;;11.00;9.40;;;6.60;99.90;;;;;;7343267;19;20320;-80
2021/11/04 04:09:07;;;;;;;10.68;7.68;;;6.60;99.90;;;;;;7388462;19;20357;-79
2021/11/04 04:11:36;;;;;;;10.48;7.78;;;6.60;99.90;;;;;;7380218;19;20341;-80
2021/11/04 04:14:04;;;;;;;10.07;8.97;;;6.60;99.90;;;;;;7380622;19;20315;-79
2021/11/04 04:17:03;;;;;;;10.35;9.25;;;6.60;99.90;;;;;;7362496;19;20320;-81
2021/11/04 04:19:29;;;;;;;11.65;9.30;;;6.60;99.90;;;;;;7366838;19;20332;-81
2021/11/04 04:21:59;;;;;;;12.13;10.80;;;6.60;99.90;;;;;;7388124;19;20340;-79
2021/11/04 04:24:27;;;;;;;11.87;10.50;;;6.50;99.90;;;;;;7367965;19;20846;-80
2021/11/04 04:26:57;;;;;;;11.30;9.90;;;6.60;99.90;;;;;;7371289;19;20352;-80
2021/11/04 04:29:25;;;;;;;13.35;11.02;;;6.60;99.90;;;;;;7367572;19;20388;-80
2021/11/04 04:31:57;;;;;;;12.30;9.38;;;6.60;99.90;;;;;;7345741;19;20429;-79
2021/11/04 04:34:27;;;;;;;11.02;8.88;;;6.60;99.90;;;;;;7363794;19;20336;-80
2021/11/04 04:36:54;;;;;;;12.52;9.75;;;6.60;99.90;;;;;;7385576;19;20384;-79
2021/11/04 04:39:25;;;;;;;11.32;10.18;;;6.60;99.90;;;;;;7358781;19;20314;-80
2021/11/04 04:41:58;;;;;;;12.38;9.95;;;6.60;99.90;;;;;;7359547;19;20305;-79
2021/11/04 04:44:36;;;;;;;14.05;11.07;;;6.60;99.90;;;;;;7384992;19;20326;-80
2021/11/04 04:47:07;;;;;;;13.40;11.52;;;6.60;99.90;;;;;;7366348;19;20366;-79
2021/11/04 04:49:34;;;;;;;14.90;10.50;;;6.80;99.90;;;;;;7363175;19;20312;-80
2021/11/04 04:52:09;;;;;;;12.20;10.55;;;6.60;99.90;;;;;;7383355;19;20345;-80
2021/11/04 04:54:38;;;;;;;17.70;11.07;;;6.60;99.90;;;;;;7349662;19;20349;-79
2021/11/04 04:57:06;;;;;;;14.68;12.00;;;6.60;99.90;;;;;;7342888;19;20332;-79
2021/11/04 04:59:38;;;;;;;11.77;9.82;;;6.60;99.90;;;;;;7380339;19;20309;-79
2021/11/04 05:02:12;;;;;;;12.97;10.87;;;6.60;99.90;;;;;;7362225;19;20728;-80
2021/11/04 05:04:41;;;;;;;13.07;10.95;;;6.70;99.90;;;;;;7384771;19;20324;-78
2021/11/04 05:07:06;;;;;;;14.83;10.80;;;6.70;99.90;;;;;;7389715;19;20301;-79
2021/11/04 05:09:32;;;;;;;11.30;9.73;;;6.80;99.90;;;;;;7390903;19;20320;-79
2021/11/04 05:11:58;;;;;;;15.20;11.43;;;6.70;99.90;;;;;;7388567;19;20325;-80
2021/11/04 05:14:23;;;;;;;11.32;9.85;;;6.80;99.90;;;;;;7390297;19;20714;-80
2021/11/04 05:16:49;;;;;;;13.87;11.20;;;6.70;99.90;;;;;;7388766;19;20316;-79
2021/11/04 05:19:15;;;;;;;13.00;11.60;;;6.80;99.90;;;;;;7387269;19;20642;-79
2021/11/04 05:21:40;;;;;;;13.43;10.55;;;6.80;99.90;;;;;;7387321;19;20340;-78
2021/11/04 05:24:08;;;;;;;11.63;9.93;;;6.80;99.90;;;;;;7388220;19;20313;-79
2021/11/04 05:26:35;;;;;;;10.80;9.63;;;6.80;99.90;;;;;;7382120;19;20325;-78
2021/11/04 05:29:01;;;;;;;12.45;10.38;;;6.80;99.90;;;;;;7388832;19;20424;-79
2021/11/04 05:31:27;;;;;;;13.97;10.10;;;6.90;99.90;;;;;;7388252;19;20305;-78
2021/11/04 05:33:53;;;;;;;12.35;10.60;;;6.90;99.90;;;;;;7388005;19;20416;-78
2021/11/04 05:36:22;;;;;;;13.27;11.10;;;6.90;99.90;;;;;;7386816;19;20325;-79
2021/11/04 05:38:48;;;;;;;14.00;10.65;;;7.10;99.90;;;;;;7388702;19;20373;-77
2021/11/04 05:41:14;;;;;;;14.48;9.65;;;6.90;99.90;;;;;;7388510;19;20317;-79
2021/11/04 05:43:40;;;;;;;11.05;9.60;;;6.90;99.90;;;;;;7371236;19;20316;-80
2021/11/04 05:46:06;;;;;;;16.00;10.48;;;7.00;99.90;;;;;;7387557;19;20879;-79
2021/11/04 05:48:31;;;;;;;15.57;11.50;;;7.00;99.90;;;;;;7386916;19;20420;-79
2021/11/04 05:50:57;;;;;;;12.80;10.20;;;7.00;99.90;;;;;;7385078;19;20822;-77
2021/11/04 05:53:23;;;;;;;12.95;10.40;;;7.00;99.90;;;;;;7385462;19;20352;-78
2021/11/04 05:55:49;;;;;;;13.40;10.63;;;7.00;99.90;;;;;;7383813;19;20338;-78
2021/11/04 05:58:16;;;;;;;11.63;10.38;;;7.10;99.90;;;;;;7385119;19;20329;-79
2021/11/04 06:00:41;;;;;;;16.05;11.63;;;7.00;99.90;;;;;;7385436;19;20328;-78
2021/11/04 06:03:07;;;;;;;13.38;10.18;;;7.00;99.90;;;;;;7383060;19;20351;-78
2021/11/04 06:05:33;;;;;;;15.80;11.43;;;7.00;99.90;;;;;;7381917;19;20388;-78
2021/11/04 06:07:58;;;;;;;11.60;9.98;;;7.10;99.90;;;;;;7382282;19;20308;-79
2021/11/04 06:10:24;;;;;;;9.87;8.13;;;7.10;99.90;;;;;;7382249;19;20336;-79
2021/11/04 06:12:50;;;;;;;11.77;9.50;;;7.10;99.90;;;;;;7382168;19;20392;-78
2021/11/04 06:15:16;;;;;;;12.50;11.13;;;7.10;99.90;;;;;;7384533;19;20344;-78
2021/11/04 06:17:41;;;;;;;13.87;10.20;;;7.10;99.90;;;;;;7392993;19;20304;-77
2021/11/04 06:20:08;;;;;;;13.80;10.70;;;7.10;99.90;;;;;;7384676;19;20850;-78
2021/11/04 06:22:33;;;;;;;12.18;10.43;;;7.10;99.90;;;;;;7384636;19;20345;-79
2021/11/04 06:24:59;;;;;;;10.68;9.30;;;7.20;99.90;;;;;;7386491;19;20311;-80
2021/11/04 06:27:25;;;;;;;10.47;9.10;;;7.20;99.90;;;;;;7386028;19;20333;-80
2021/11/04 06:29:50;;;;;;;13.05;10.13;;;7.20;99.90;;;;;;7387297;19;20316;-80
2021/11/04 06:32:16;;;;;;;9.53;8.47;;;7.20;99.90;;;;;;7384149;19;20321;-80
2021/11/04 06:34:42;;;;;;;11.25;10.05;;;7.30;99.90;;;;;;7364660;19;20348;-80
2021/11/04 06:37:08;;;;;;;9.27;8.02;;;7.30;99.90;;;;;;7386240;19;20335;-81
2021/11/04 06:39:34;;;;;;;11.03;8.93;;;7.30;99.90;;;;;;7383140;19;20325;-80
2021/11/04 06:42:01;;;;;;;11.05;8.77;;;7.30;99.90;;;;;;7342473;19;20404;-81
2021/11/04 06:44:28;;;;;;;12.50;10.05;;;7.30;99.90;;;;;;7395252;19;20313;-80
2021/11/04 06:46:56;;;;;;;12.45;10.38;;;7.30;99.90;;;;;;7385584;19;20341;-80
2021/11/04 06:49:22;;;;;;;11.73;10.07;;;7.30;99.90;;;;;;7384538;19;20392;-80
2021/11/04 06:51:48;;;;;;;11.25;10.15;;;7.40;99.90;;;;;;7385235;19;20341;-80
2021/11/04 06:54:15;;;;;;;14.15;10.50;;;7.30;99.90;;;;;;7381355;19;20324;-80
2021/11/04 06:56:45;;;;;;;11.18;9.77;;;7.30;99.90;;;;;;7386660;19;20309;-80
2021/11/04 06:59:19;;;;;;;12.10;10.80;;;7.30;99.90;;;;;;7388884;19;20320;-79
2021/11/04 07:01:57;;;;;;;12.80;10.02;;;7.40;99.90;;;;;;7284335;19;2026092;-79
2021/11/04 07:04:23;;;;;;;10.33;9.17;;;7.40;99.90;;;;;;7388518;19;20328;-79
2021/11/04 07:06:55;;;;;;;11.53;10.30;;;7.40;99.90;;;;;;7387153;19;20412;-80
2021/11/04 07:09:20;;;;;;;11.75;9.20;;;7.40;99.90;;;;;;7384639;19;20460;-78
2021/11/04 07:11:46;;;;;;;13.65;9.73;;;7.40;99.90;;;;;;7384437;19;20305;-79
2021/11/04 07:14:12;;;;;;;11.00;8.60;;;7.50;99.90;;;;;;7384400;19;20309;-79
2021/11/04 07:16:38;;;;;;;10.73;9.10;;;7.60;99.90;;;;;;7384963;19;20340;-79
2021/11/04 07:19:12;;;;;;;10.05;9.00;;;7.50;99.90;;;;;;7366231;19;20338;-80
2021/11/04 07:22:19;;;;;;;9.77;8.77;;;7.50;99.90;;;;;;7321591;19;20864;-80
2021/11/04 07:25:13;;;;;;;15.07;10.13;;;7.60;99.90;;;;;;7213377;19;2004284;-80
2021/11/04 07:28:12;;;;;;;9.50;8.13;;;7.60;99.90;;;;;;7234768;19;2004618;-79
2021/11/04 07:31:17;;;;;;;11.90;9.52;;;7.70;99.90;;;;;;7261181;19;2004452;-79
2021/11/04 07:34:07;;;;;;;10.07;9.02;;;7.60;99.90;;;;;;7156907;19;2004347;-79
2021/11/04 07:36:34;;;;;;;10.20;8.20;;;7.70;99.90;;;;;;7220025;19;2004337;-80
2021/11/04 07:39:00;;;;;;;10.18;9.18;;;7.70;99.90;;;;;;7384565;19;20329;-78
2021/11/04 07:41:26;;;;;;;9.00;8.10;;;7.70;99.90;;;;;;7385373;19;20324;-79
2021/11/04 07:43:51;;;;;;;8.70;7.35;;;7.70;99.90;;;;;;7363833;19;20289;-80
2021/11/04 07:46:17;;;;;;;8.50;7.60;;;7.70;99.90;;;;;;7383097;19;20761;-80
2021/11/04 07:48:43;;;;;;;8.93;7.93;;;7.80;99.90;;;;;;7384107;19;20344;-80
2021/11/04 07:51:12;;;;;;;7.15;6.20;;;7.80;99.90;;;;;;7385152;19;20324;-80
2021/11/04 07:53:39;;;;;;;7.70;6.90;;;7.80;99.90;;;;;;7384222;19;20325;-81
2021/11/04 07:56:05;;;;;;;12.60;7.65;;;7.90;99.90;;;;;;7383331;19;20317;-80
2021/11/04 07:58:31;;;;;;;7.68;5.85;;;7.90;99.90;;;;;;7391943;19;20335;-80
2021/11/04 08:00:57;;;;;;;8.70;6.90;;;7.90;99.90;;;;;;7383773;19;20329;-80
2021/11/04 08:03:23;;;;;;;6.63;5.95;;;7.90;99.90;;;;;;7383665;19;20308;-80
2021/11/04 08:05:49;;;;;;;6.97;5.88;;;8.00;99.90;;;;;;7385436;19;20317;-80
2021/11/04 08:08:15;;;;;;;7.65;6.18;;;8.00;99.90;;;;;;7382079;19;20313;-79
2021/11/04 08:10:41;;;;;;;6.45;5.85;;;8.00;99.90;;;;;;7383705;19;20338;-79
2021/11/04 08:13:07;;;;;;;6.73;6.03;;;8.00;99.90;;;;;;7381848;19;20308;-80
2021/11/04 08:15:36;;;;;;;7.90;7.18;;;8.10;99.90;;;;;;7382932;19;20345;-80
2021/11/04 08:18:02;;;;;;;5.78;5.28;;;8.30;99.90;;;;;;7382534;19;20326;-80
2021/11/04 08:20:29;;;;;;;7.57;6.57;;;8.10;99.90;;;;;;7362416;19;20323;-79
2021/11/04 08:22:55;;;;;;;6.20;5.57;;;8.10;99.90;;;;;;7385909;19;20395;-81
2021/11/04 08:25:21;;;;;;;5.60;5.00;;;8.20;99.90;;;;;;7381444;19;20407;-79
2021/11/04 08:27:47;;;;;;;9.18;5.88;;;8.10;99.90;;;;;;7382014;19;21449;-81
2021/11/04 08:30:16;;;;;;;6.32;5.68;;;8.20;99.90;;;;;;7383194;19;20409;-81
2021/11/04 08:32:46;;;;;;;7.75;6.18;;;8.20;99.90;;;;;;7360820;19;20392;-81
2021/11/04 08:35:12;;;;;;;6.70;5.88;;;8.30;99.90;;;;;;7390871;19;20304;-81
2021/11/04 08:37:38;;;;;;;5.93;5.32;;;8.30;99.90;;;;;;7368411;19;20332;-81
2021/11/04 08:40:05;;;;;;;4.55;4.15;;;8.30;99.90;;;;;;7386208;19;20323;-82
2021/11/04 08:42:34;;;;;;;5.68;4.80;;;8.20;99.90;;;;;;7397819;19;20308;-81
2021/11/04 09:39:14;;;;;;;4.45;3.88;;;8.90;99.90;;;;;;7366294;19;20328;-80
2021/11/04 09:41:43;;;;;;;3.03;2.83;;;8.90;99.90;;;;;;7254588;19;2004010;-79
2021/11/04 09:44:22;;;;;;;3.77;3.40;;;8.90;99.90;;;;;;7330068;19;20321;-79
2021/11/04 09:46:52;;;;;;;4.05;3.65;;;9.00;99.90;;;;;;7377710;19;20332;-81
2021/11/04 09:49:21;;;;;;;5.55;3.83;;;9.00;99.90;;;;;;7359551;19;20883;-82
2021/11/04 09:51:54;;;;;;;3.60;3.30;;;9.00;99.90;;;;;;7367048;19;20340;-81
2021/11/04 09:58:04;;;;;;;3.08;2.80;;;9.10;99.90;;;;;;7427515;19;20385;-83
2021/11/04 10:00:36;;;;;;;3.57;3.23;;;9.10;99.90;;;;;;7382906;19;20418;-79
2021/11/04 10:03:10;;;;;;;4.37;3.97;;;9.10;99.90;;;;;;7390104;19;20320;-80
2021/11/04 10:05:51;;;;;;;4.00;3.63;;;9.20;99.90;;;;;;7383196;19;20316;-79
2021/11/04 10:08:32;;;;;;;13.50;9.77;;;9.20;99.90;;;;;;7295841;19;2004473;-78
2021/11/04 10:11:13;;;;;;;12.30;8.73;;;9.30;99.90;;;;;;7396122;19;20364;-80
2021/11/04 10:13:40;;;;;;;6.75;5.45;;;9.40;99.90;;;;;;7377656;19;20331;-79
2021/11/04 10:20:28;;;;;;;4.35;3.08;;;9.40;99.90;;;;;;7115809;19;2004698;-82
2021/11/04 10:44:18;;;;;;;2.90;2.70;;;9.90;99.90;;;;;;7378304;19;20320;-81
2021/11/04 10:46:45;;;;;;;3.50;2.80;;;9.90;99.90;;;;;;7399515;19;20328;-81
2021/11/04 10:49:11;;;;;;;4.07;3.67;;;9.90;99.90;;;;;;7401778;19;20311;-85
2021/11/04 10:51:37;;;;;;;3.38;3.08;;;10.00;99.90;;;;;;7380602;19;20344;-82
2021/11/04 10:54:13;;;;;;;4.80;3.05;;;10.00;99.90;;;;;;7393374;19;20384;-80
2021/11/04 10:56:40;;;;;;;3.13;2.85;;;10.10;99.90;;;;;;7391147;19;20313;-81
2021/11/04 10:59:09;;;;;;;2.70;2.50;;;10.00;99.90;;;;;;7399774;19;20325;-82
2021/11/04 11:01:41;;;;;;;3.13;2.80;;;10.00;99.90;;;;;;7392529;19;20351;-83
2021/11/04 11:04:15;;;;;;;2.65;2.45;;;10.00;99.90;;;;;;7409529;19;20338;-81
2021/11/04 11:06:52;;;;;;;2.97;2.78;;;10.00;99.90;;;;;;7395021;19;20319;-84
2021/11/04 11:09:20;;;;;;;3.78;3.35;;;10.10;99.90;;;;;;7398529;19;20322;-84
2021/11/04 11:11:51;;;;;;;3.20;2.90;;;10.00;99.90;;;;;;7405429;19;20409;-81
2021/11/04 11:14:18;;;;;;;4.60;4.20;;;9.90;99.90;;;;;;7413713;19;20368;-82
2021/11/04 11:16:47;;;;;;;4.55;4.15;;;9.90;99.90;;;;;;7406525;19;20313;-79
2021/11/04 11:19:42;;;;;;;3.80;2.95;;;9.90;99.90;;;;;;7414677;19;20332;-85
2021/11/04 11:22:08;;;;;;;3.38;3.13;;;9.90;99.90;;;;;;7415037;19;20355;-83
2021/11/04 11:24:35;;;;;;;3.17;2.92;;;10.00;99.90;;;;;;7407148;19;20332;-88
2021/11/04 11:27:02;;;;;;;4.13;3.73;;;10.00;99.90;;;;;;7399138;19;20312;-82
2021/11/04 11:29:32;;;;;;;4.47;3.47;;;10.10;99.90;;;;;;7396072;19;20316;-83
2021/11/04 11:31:58;;;;;;;4.28;3.88;;;10.20;99.90;;;;;;7388615;19;21890;-82
2021/11/04 11:34:27;;;;;;;4.80;4.37;;;10.20;99.90;;;;;;7393756;19;20352;-80
2021/11/04 11:37:14;;;;;;;5.05;4.55;;;10.20;99.90;;;;;;7395996;19;20301;-81
2021/11/04 11:39:45;;;;;;;5.40;4.88;;;10.10;99.90;;;;;;7278197;19;2004601;-81
2021/11/04 11:42:21;;;;;;;4.80;3.92;;;9.90;99.90;;;;;;7396210;19;20743;-78
2021/11/04 11:44:52;;;;;;;4.32;3.40;;;9.90;99.90;;;;;;7288234;19;2004523;-79
2021/11/04 11:47:20;;;;;;;3.05;2.67;;;9.70;99.90;;;;;;7393184;19;20869;-79
2021/11/04 11:49:47;;;;;;;2.15;2.05;;;9.30;99.90;;;;;;7383626;19;20344;-78
2021/11/04 11:52:58;;;;;;;2.92;2.60;;;9.10;99.90;;;;;;7382821;19;20372;-79
2021/11/04 11:55:40;;;;;;;4.43;3.00;;;8.90;99.90;;;;;;7284420;19;2010532;-79
2021/11/04 11:58:26;;;;;;;3.10;2.90;;;8.60;99.90;;;;;;7390071;19;20487;-79
2021/11/04 12:01:13;;;;;;;3.40;3.00;;;8.30;99.90;;;;;;7373991;19;20305;-80
2021/11/04 12:03:40;;;;;;;2.78;2.58;;;8.20;99.90;;;;;;7391057;19;20305;-79
2021/11/04 12:06:12;;;;;;;3.28;2.97;;;8.10;99.90;;;;;;7372483;19;20935;-79
2021/11/04 12:08:51;;;;;;;3.25;2.92;;;8.00;99.90;;;;;;7396971;19;20328;-80
2021/11/04 12:11:37;;;;;;;2.80;2.30;;;7.90;99.90;;;;;;7397485;19;20329;-79
2021/11/04 12:14:19;;;;;;;2.47;2.28;;;7.80;99.90;;;;;;7407432;19;20396;-79
2021/11/04 12:19:32;;;;;;;1.83;1.73;;;7.70;99.90;;;;;;7291868;19;2007225;-79
2021/11/04 12:22:00;;;;;;;2.15;1.95;;;7.70;99.90;;;;;;7391362;19;20324;-80
2021/11/04 12:24:26;;;;;;;2.17;2.00;;;7.50;99.90;;;;;;7390931;19;20349;-79
2021/11/04 12:26:52;;;;;;;2.33;2.13;;;7.50;99.90;;;;;;7394193;19;20341;-78
2021/11/04 12:29:24;;;;;;;1.60;1.50;;;7.30;99.90;;;;;;7395007;19;20350;-79
2021/11/04 12:31:50;;;;;;;1.80;1.70;;;7.20;99.90;;;;;;7388964;19;20324;-79
2021/11/04 12:34:21;;;;;;;1.80;1.70;;;7.30;99.90;;;;;;7388765;19;20337;-78
2021/11/04 12:36:54;;;;;;;1.92;1.83;;;7.20;99.90;;;;;;7390165;19;20329;-79
2021/11/04 12:39:21;;;;;;;3.78;1.65;;;7.10;99.90;;;;;;7390295;19;20313;-78
2021/11/04 12:41:48;;;;;;;1.30;1.30;;;7.00;99.90;;;;;;7391030;19;20357;-77
2021/11/04 12:44:17;;;;;;;1.80;1.70;;;7.00;99.90;;;;;;7391148;19;20328;-78
2021/11/04 12:46:49;;;;;;;2.05;1.90;;;7.00;99.90;;;;;;7396093;19;20361;-77
2021/11/04 12:49:15;;;;;;;4.13;2.00;;;7.00;99.90;;;;;;7393424;19;20388;-78
2021/11/04 12:51:47;;;;;;;2.30;1.92;;;7.10;99.90;;;;;;7387377;19;20341;-79
2021/11/04 12:54:16;;;;;;;1.77;1.67;;;7.10;99.90;;;;;;7393484;19;20438;-79
2021/11/04 12:56:48;;;;;;;1.50;1.40;;;7.10;99.90;;;;;;7392560;19;20349;-79
2021/11/04 12:59:44;;;;;;;1.67;1.57;;;7.10;99.90;;;;;;7372107;19;20326;-79
2021/11/04 13:02:25;;;;;;;1.70;1.60;;;7.10;99.90;;;;;;7290498;19;2007264;-79
2021/11/04 13:04:55;;;;;;;1.42;1.35;;;7.10;99.90;;;;;;7390312;19;20328;-79
2021/11/04 13:07:28;;;;;;;1.67;1.58;;;7.00;99.90;;;;;;7392648;19;20317;-79
2021/11/04 13:09:55;;;;;;;1.60;1.50;;;7.20;99.90;;;;;;7395941;19;20314;-80
2021/11/04 13:12:45;;;;;;;1.58;1.48;;;7.10;99.90;;;;;;7398841;19;20320;-79
2021/11/04 13:15:13;;;;;;;2.20;1.60;;;7.10;99.90;;;;;;7298520;19;2004425;-79
2021/11/04 13:17:38;;;;;;;1.60;1.50;;;7.10;99.90;;;;;;7396761;19;20304;-79
2021/11/04 13:20:06;;;;;;;1.92;1.73;;;7.10;99.90;;;;;;7398204;19;20336;-79
2021/11/04 13:22:33;;;;;;;1.50;1.40;;;7.30;99.90;;;;;;7398808;19;20360;-79
2021/11/04 13:25:01;;;;;;;1.90;1.80;;;7.00;99.90;;;;;;7400061;19;20304;-79
2021/11/04 13:27:30;;;;;;;1.58;1.48;;;7.10;99.90;;;;;;7405147;19;20677;-80
2021/11/04 13:29:58;;;;;;;1.45;1.33;;;7.00;99.90;;;;;;7402352;19;20360;-80
2021/11/04 13:32:26;;;;;;;1.38;1.27;;;7.00;99.90;;;;;;7395576;19;20387;-78
2021/11/04 13:34:52;;;;;;;1.20;1.20;;;7.00;99.90;;;;;;7392758;19;20378;-78
2021/11/04 13:37:27;;;;;;;1.27;1.27;;;7.00;99.90;;;;;;7371778;19;20300;-79
2021/11/04 13:39:59;;;;;;;1.40;1.30;;;7.00;99.90;;;;;;7393075;19;20327;-79
2021/11/04 13:42:27;;;;;;;1.40;1.30;;;7.00;99.90;;;;;;7395692;19;20368;-79
2021/11/04 13:45:16;;;;;;;1.17;1.08;;;6.90;99.90;;;;;;7393165;19;20875;-79
2021/11/04 13:47:43;;;;;;;1.45;1.20;;;6.90;99.90;;;;;;7289960;19;2004440;-78
2021/11/04 13:50:14;;;;;;;1.23;1.15;;;6.90;99.90;;;;;;7391956;19;20380;-78
2021/11/04 13:52:40;;;;;;;1.30;1.20;;;6.90;99.90;;;;;;7393658;19;20892;-79
2021/11/04 13:55:07;;;;;;;1.40;1.10;;;7.00;99.90;;;;;;7393260;19;20357;-78
2021/11/04 13:57:50;;;;;;;0.88;0.88;;;6.90;99.90;;;;;;7397221;19;20329;-79
2021/11/04 14:00:28;;;;;;;1.23;1.15;;;6.90;99.90;;;;;;7293382;19;2005509;-79
2021/11/04 14:02:58;;;;;;;1.20;1.10;;;6.90;99.90;;;;;;7297293;19;2004387;-79
2021/11/04 14:05:43;;;;;;;1.45;1.30;;;6.80;99.90;;;;;;7401458;19;21878;-79
2021/11/04 14:08:19;;;;;;;1.10;1.00;;;6.80;99.90;;;;;;7300617;19;2004469;-79
2021/11/04 14:10:51;;;;;;;1.40;1.30;;;6.80;99.90;;;;;;7289140;19;2004429;-78
2021/11/04 14:13:19;;;;;;;1.10;1.10;;;6.80;99.90;;;;;;7397573;19;20313;-79
2021/11/04 14:15:45;;;;;;;1.25;1.15;;;6.80;99.90;;;;;;7394179;19;20321;-79
2021/11/04 14:18:18;;;;;;;1.20;1.20;;;6.70;99.90;;;;;;7393083;19;20494;-78
2021/11/04 14:20:44;;;;;;;1.60;1.50;;;6.90;99.90;;;;;;7395656;19;20357;-80
2021/11/04 14:23:12;;;;;;;1.70;1.60;;;6.90;99.90;;;;;;7392942;19;20328;-79
2021/11/04 14:25:38;;;;;;;1.77;1.65;;;6.90;99.90;;;;;;7392634;19;20345;-79
2021/11/04 14:28:07;;;;;;;1.50;1.40;;;6.90;99.90;;;;;;7389703;19;20360;-79
2021/11/04 14:30:35;;;;;;;1.13;1.10;;;6.90;99.90;;;;;;7388332;19;21038;-78
2021/11/04 14:33:01;;;;;;;1.00;1.00;;;6.90;99.90;;;;;;7390273;19;20329;-79
2021/11/04 14:35:27;;;;;;;1.10;1.10;;;6.90;99.90;;;;;;7387134;19;20314;-78
2021/11/04 14:37:53;;;;;;;1.10;1.00;;;6.80;99.90;;;;;;7371164;19;20340;-79
2021/11/04 14:40:19;;;;;;;1.13;1.13;;;7.00;99.90;;;;;;7389270;19;20344;-79
2021/11/04 14:42:47;;;;;;;1.25;1.15;;;7.00;99.90;;;;;;7390124;19;20427;-80
2021/11/04 14:45:16;;;;;;;1.00;1.00;;;7.00;99.90;;;;;;7387595;19;20360;-79
2021/11/04 14:47:42;;;;;;;1.02;1.02;;;7.00;99.90;;;;;;7387711;19;20801;-79
2021/11/04 14:50:12;;;;;;;0.90;0.90;;;7.00;99.90;;;;;;7386361;19;20331;-77
2021/11/04 14:52:38;;;;;;;1.10;1.10;;;7.00;99.90;;;;;;7386470;19;20969;-76
2021/11/04 14:55:05;;;;;;;1.60;1.20;;;7.00;99.90;;;;;;7383627;19;20331;-79
2021/11/04 14:57:30;;;;;;;1.55;1.45;;;7.00;99.90;;;;;;7388176;19;20673;-78
2021/11/04 14:59:56;;;;;;;1.60;1.23;;;7.00;99.90;;;;;;7388386;19;20345;-79
2021/11/04 15:02:22;;;;;;;1.73;1.63;;;7.00;99.90;;;;;;7383605;19;20293;-79
2021/11/04 15:04:47;;;;;;;1.50;1.40;;;7.00;99.90;;;;;;7387591;19;20384;-78
2021/11/04 15:07:13;;;;;;;1.10;1.10;;;7.00;99.90;;;;;;7385602;19;20331;-79
2021/11/04 15:09:39;;;;;;;0.93;0.93;;;7.00;99.90;;;;;;7392939;19;20360;-79
2021/11/04 15:12:07;;;;;;;1.02;1.00;;;7.00;99.90;;;;;;7389041;19;20317;-79
2021/11/04 15:14:33;;;;;;;1.05;1.05;;;7.00;99.90;;;;;;7387321;19;20986;-79
2021/11/04 15:16:58;;;;;;;1.20;1.20;;;6.90;99.90;;;;;;7385159;19;20329;-78
2021/11/04 15:19:24;;;;;;;1.10;1.10;;;6.90;99.90;;;;;;7384354;19;20701;-79
2021/11/04 15:21:50;;;;;;;1.30;1.20;;;6.90;99.90;;;;;;7386559;19;20352;-79
2021/11/04 15:24:16;;;;;;;0.90;0.90;;;6.70;99.90;;;;;;7368096;19;20320;-78
2021/11/04 15:26:42;;;;;;;1.03;1.03;;;6.70;99.90;;;;;;7384075;19;20344;-79
2021/11/04 15:29:07;;;;;;;1.15;1.05;;;6.80;99.90;;;;;;7386850;19;20332;-79
2021/11/04 15:31:33;;;;;;;1.10;1.10;;;6.70;99.90;;;;;;7386998;19;20301;-78
2021/11/04 15:33:59;;;;;;;0.77;0.77;;;6.60;99.90;;;;;;7383654;19;20320;-78
2021/11/04 15:36:25;;;;;;;1.40;1.30;;;6.70;99.90;;;;;;7363507;19;20331;-77
2021/11/04 15:38:51;;;;;;;1.40;1.30;;;6.80;99.90;;;;;;7385796;19;20340;-79
2021/11/04 15:41:17;;;;;;;1.88;1.40;;;6.70;99.90;;;;;;7383961;19;20368;-78
2021/11/04 15:43:43;;;;;;;1.10;1.10;;;6.80;99.90;;;;;;7387952;19;20312;-78
2021/11/04 15:46:09;;;;;;;1.00;1.00;;;6.70;99.90;;;;;;7384519;19;20316;-78
2021/11/04 15:48:34;;;;;;;1.40;1.30;;;6.80;99.90;;;;;;7384509;19;20359;-78
2021/11/04 15:51:02;;;;;;;1.30;1.20;;;6.80;99.90;;;;;;7383517;19;20379;-78
2021/11/04 15:53:28;;;;;;;1.13;1.13;;;6.80;99.90;;;;;;7382820;19;20352;-78
2021/11/04 15:55:53;;;;;;;1.58;1.23;;;6.80;99.90;;;;;;7382453;19;20322;-77
2021/11/04 15:58:19;;;;;;;1.30;1.20;;;6.80;99.90;;;;;;7384082;19;20337;-79
2021/11/04 16:00:45;;;;;;;1.00;1.00;;;6.80;99.90;;;;;;7384355;19;20328;-78
2021/11/04 16:03:13;;;;;;;1.13;1.13;;;6.80;99.90;;;;;;7384465;19;20305;-78
2021/11/04 16:05:39;;;;;;;1.40;1.20;;;6.70;99.90;;;;;;7384725;19;20316;-79
2021/11/04 16:08:05;;;;;;;0.80;0.80;;;6.70;99.90;;;;;;7385577;19;20321;-79
2021/11/04 16:10:31;;;;;;;1.05;1.05;;;6.70;99.90;;;;;;7385986;19;20359;-78
2021/11/04 16:12:57;;;;;;;1.20;1.10;;;6.80;99.90;;;;;;7387095;19;20323;-78
2021/11/04 16:15:23;;;;;;;0.93;0.93;;;6.80;99.90;;;;;;7373423;19;20347;-80
2021/11/04 16:17:49;;;;;;;1.30;1.20;;;6.70;99.90;;;;;;7390537;19;20348;-80
2021/11/04 16:20:14;;;;;;;0.90;0.90;;;6.80;99.90;;;;;;7394348;19;20357;-79
2021/11/04 16:22:40;;;;;;;0.73;0.73;;;6.80;99.90;;;;;;7389520;19;20429;-78
2021/11/04 16:25:07;;;;;;;1.38;1.20;;;6.80;99.90;;;;;;7391025;19;20882;-79
2021/11/04 16:27:33;;;;;;;0.80;0.80;;;6.70;99.90;;;;;;7367445;19;20354;-80
2021/11/04 16:29:59;;;;;;;0.85;0.85;;;6.80;99.90;;;;;;7387778;19;20309;-79
2021/11/04 16:32:25;;;;;;;1.10;1.10;;;6.70;99.90;;;;;;7388411;19;20328;-79
2021/11/04 16:34:51;;;;;;;0.98;0.98;;;6.80;99.90;;;;;;7385227;19;20867;-79
2021/11/04 16:37:19;;;;;;;1.00;1.00;;;6.70;99.90;;;;;;7386174;19;20323;-79
2021/11/04 16:39:46;;;;;;;0.80;0.80;;;6.80;99.90;;;;;;7386029;19;20329;-79
2021/11/04 16:42:13;;;;;;;0.80;0.80;;;6.80;99.90;;;;;;7386768;19;20389;-80
2021/11/04 16:44:40;;;;;;;1.00;1.00;;;6.80;99.90;;;;;;7391988;19;20364;-79
2021/11/04 16:47:06;;;;;;;1.00;1.00;;;6.80;99.90;;;;;;7375717;19;20316;-80
2021/11/04 16:49:35;;;;;;;0.80;0.80;;;6.80;99.90;;;;;;7393473;19;21006;-80
2021/11/04 16:52:01;;;;;;;0.82;0.82;;;6.80;99.90;;;;;;7391504;19;20901;-79
2021/11/04 16:54:27;;;;;;;0.80;0.80;;;6.90;99.90;;;;;;7389810;19;20332;-78
2021/11/04 16:56:52;;;;;;;0.95;0.95;;;6.80;99.90;;;;;;7391118;19;20344;-79
2021/11/04 16:59:21;;;;;;;1.02;1.02;;;6.80;99.90;;;;;;7387305;19;20348;-78
2021/11/04 17:01:46;;;;;;;0.90;0.90;;;6.80;99.90;;;;;;7385698;19;20357;-78
2021/11/04 17:04:12;;;;;;;1.20;1.10;;;6.90;99.90;;;;;;7384040;19;20348;-78
2021/11/04 17:06:38;;;;;;;0.90;0.90;;;6.90;99.90;;;;;;7386785;19;20349;-78
2021/11/04 17:09:04;;;;;;;0.80;0.80;;;7.00;99.90;;;;;;7386270;19;20336;-77
2021/11/04 17:11:29;;;;;;;1.10;1.10;;;7.00;99.90;;;;;;7386204;19;20368;-78
2021/11/04 17:13:57;;;;;;;1.90;1.80;;;7.10;99.90;;;;;;7386677;19;20297;-79
2021/11/04 17:16:23;;;;;;;1.15;1.15;;;7.00;99.90;;;;;;7360401;19;20353;-79
2021/11/04 17:18:49;;;;;;;1.50;1.40;;;7.10;99.90;;;;;;7363371;19;20690;-78
2021/11/04 17:21:16;;;;;;;1.73;1.63;;;7.10;99.90;;;;;;7383828;19;20312;-79
2021/11/04 17:23:41;;;;;;;2.10;1.90;;;7.10;99.90;;;;;;7377735;19;20372;-79
2021/11/04 17:26:07;;;;;;;2.90;2.60;;;7.20;99.90;;;;;;7387641;19;20350;-79
2021/11/04 17:28:33;;;;;;;1.50;1.40;;;7.20;99.90;;;;;;7385139;19;20336;-79
2021/11/04 17:30:58;;;;;;;0.90;0.90;;;7.20;99.90;;;;;;7384663;19;20340;-80
2021/11/04 17:33:24;;;;;;;1.00;1.00;;;7.20;99.90;;;;;;7386000;19;20297;-79